createdAt,value
2023-02-14T00:02:00.102Z,12.70
2023-02-14T00:04:26.560Z,11.52
2023-02-14T00:06:52.985Z,10.45
2023-02-14T00:09:19.814Z,12.05
2023-02-14T00:11:46.335Z,9.45
2023-02-14T00:14:32.173Z,11.43
2023-02-14T00:16:58.728Z,9.93
2023-02-14T00:19:25.081Z,11.32
2023-02-14T00:21:51.860Z,7.22
2023-02-14T00:24:22.848Z,10.30
2023-02-14T00:26:49.941Z,13.20
2023-02-14T00:29:22.067Z,11.10
2023-02-14T00:31:48.644Z,13.25
2023-02-14T00:34:15.601Z,14.57
2023-02-14T00:36:42.040Z,13.85
2023-02-14T00:39:09.614Z,14.38
2023-02-14T00:41:35.920Z,9.40
2023-02-14T00:44:02.641Z,5.53
2023-02-14T00:46:29.195Z,6.75
2023-02-14T00:48:55.613Z,4.10
2023-02-14T00:51:22.037Z,4.22
2023-02-14T00:53:49.420Z,5.25
2023-02-14T00:56:16.136Z,6.30
2023-02-14T00:58:42.698Z,3.88
2023-02-14T01:01:09.511Z,6.97
2023-02-14T01:03:36.547Z,3.55
2023-02-14T01:06:02.904Z,3.17
2023-02-14T01:08:29.354Z,3.45
2023-02-14T01:10:55.755Z,3.28
2023-02-14T01:13:22.102Z,4.10
2023-02-14T01:15:50.810Z,3.83
2023-02-14T01:18:17.996Z,3.67
2023-02-14T01:20:44.541Z,3.60
2023-02-14T01:23:11.430Z,3.67
2023-02-14T01:25:38.108Z,4.00
2023-02-14T01:28:04.822Z,3.65
2023-02-14T01:30:31.504Z,3.40
2023-02-14T01:32:58.327Z,4.10
2023-02-14T01:35:24.887Z,3.95
2023-02-14T01:37:51.229Z,3.83
2023-02-14T01:40:17.613Z,5.22
2023-02-14T01:42:44.015Z,5.28
2023-02-14T01:45:16.573Z,4.75
2023-02-14T01:47:44.312Z,5.70
2023-02-14T01:50:14.771Z,4.95
2023-02-14T01:52:43.755Z,4.60
2023-02-14T01:55:12.475Z,4.38
2023-02-14T01:57:43.609Z,3.80
2023-02-14T02:00:29.105Z,4.38
2023-02-14T02:02:56.828Z,5.60
2023-02-14T02:05:23.819Z,4.43
2023-02-14T02:07:55.305Z,4.22
2023-02-14T02:10:21.776Z,5.40
2023-02-14T02:12:49.191Z,3.38
2023-02-14T02:15:16.019Z,4.60
2023-02-14T02:17:48.855Z,4.32
2023-02-14T02:20:15.159Z,4.40
2023-02-14T02:22:41.563Z,3.58
2023-02-14T02:25:19.830Z,3.72
2023-02-14T02:28:04.733Z,4.25
2023-02-14T02:30:46.278Z,3.92
2023-02-14T02:33:12.737Z,3.15
2023-02-14T02:35:44.958Z,4.00
2023-02-14T02:38:14.124Z,3.30
2023-02-14T02:40:53.767Z,3.40
2023-02-14T02:43:38.801Z,3.85
2023-02-14T02:46:27.743Z,4.53
2023-02-14T02:48:59.701Z,3.97
2023-02-14T02:51:52.547Z,4.00
2023-02-14T02:54:38.836Z,5.57
2023-02-14T02:59:33.136Z,3.85
2023-02-14T03:02:22.954Z,3.17
2023-02-14T03:04:55.299Z,2.50
2023-02-14T03:07:35.877Z,3.50
2023-02-14T03:10:13.331Z,4.78
2023-02-14T03:12:58.747Z,3.83
2023-02-14T03:15:27.966Z,3.93
2023-02-14T03:18:00.161Z,3.60
2023-02-14T03:20:37.513Z,4.78
2023-02-14T03:23:03.841Z,4.07
2023-02-14T03:25:36.437Z,4.13
2023-02-14T03:28:12.177Z,4.15
2023-02-14T03:30:57.580Z,2.92
2023-02-14T03:33:30.397Z,3.78
2023-02-14T03:36:02.586Z,3.42
2023-02-14T03:38:39.447Z,2.85
2023-02-14T03:41:08.958Z,3.28
2023-02-14T03:43:47.276Z,4.85
2023-02-14T03:46:16.382Z,2.20
2023-02-14T03:48:43.173Z,3.33
2023-02-14T03:51:11.613Z,3.25
2023-02-14T03:53:40.202Z,4.05
2023-02-14T03:56:18.588Z,3.30
2023-02-14T03:58:46.885Z,3.50
2023-02-14T04:01:33.665Z,3.65
2023-02-14T04:04:00.687Z,3.30
2023-02-14T04:06:27.118Z,2.50
2023-02-14T04:08:53.615Z,3.33
2023-02-14T04:11:20.245Z,2.65
2023-02-14T04:13:46.656Z,3.15
2023-02-14T04:16:13.120Z,3.47
2023-02-14T04:18:58.093Z,3.55
2023-02-14T04:21:24.513Z,2.72
2023-02-14T04:23:50.822Z,1.70
2023-02-14T04:26:17.277Z,2.78
2023-02-14T04:28:43.602Z,2.40
2023-02-14T04:31:11.381Z,2.83
2023-02-14T04:33:39.244Z,2.83
2023-02-14T04:36:05.780Z,3.33
2023-02-14T04:38:32.548Z,2.97
2023-02-14T04:40:59.239Z,2.92
2023-02-14T04:43:25.909Z,2.53
2023-02-14T04:45:52.226Z,3.50
2023-02-14T04:48:18.574Z,3.20
2023-02-14T04:50:45.313Z,3.53
2023-02-14T04:53:11.681Z,3.30
2023-02-14T04:55:38.246Z,2.95
2023-02-14T04:58:04.656Z,3.90
2023-02-14T05:00:31.003Z,3.42
2023-02-14T05:02:57.479Z,4.20
2023-02-14T05:05:23.823Z,4.20
2023-02-14T05:07:50.149Z,3.67
2023-02-14T05:10:16.625Z,6.00
2023-02-14T05:12:43.034Z,4.00
2023-02-14T05:15:09.667Z,5.03
2023-02-14T05:17:36.283Z,3.60
2023-02-14T05:20:03.886Z,4.00
2023-02-14T05:22:30.292Z,4.82
2023-02-14T05:24:56.647Z,4.40
2023-02-14T05:27:23.021Z,3.67
2023-02-14T05:29:49.434Z,3.42
2023-02-14T05:32:15.838Z,3.70
2023-02-14T05:34:42.172Z,3.70
2023-02-14T05:37:08.543Z,3.55
2023-02-14T05:39:34.923Z,4.00
2023-02-14T05:42:01.244Z,3.40
2023-02-14T05:44:27.551Z,4.13
2023-02-14T05:46:54.892Z,3.22
2023-02-14T05:49:21.330Z,2.55
2023-02-14T05:51:47.730Z,2.50
2023-02-14T05:54:14.041Z,2.55
2023-02-14T05:56:40.401Z,3.38
2023-02-14T05:59:06.825Z,4.25
2023-02-14T06:01:33.181Z,3.88
2023-02-14T06:04:00.216Z,3.78
2023-02-14T06:06:26.730Z,3.17
2023-02-14T06:08:53.163Z,3.50
2023-02-14T06:11:19.675Z,2.90
2023-02-14T06:13:45.987Z,3.40
2023-02-14T06:16:12.390Z,3.08
2023-02-14T06:18:39.101Z,2.53
2023-02-14T06:21:05.564Z,2.88
2023-02-14T06:23:31.861Z,5.68
2023-02-14T06:25:58.173Z,3.15
2023-02-14T06:28:24.484Z,3.15
2023-02-14T06:30:51.367Z,2.80
2023-02-14T06:33:17.765Z,2.60
2023-02-14T06:35:44.172Z,3.40
2023-02-14T06:38:10.499Z,5.88
2023-02-14T06:40:36.915Z,4.72
2023-02-14T06:43:03.353Z,4.85
2023-02-14T06:45:29.827Z,2.97
2023-02-14T06:47:56.161Z,3.47
2023-02-14T06:50:22.595Z,4.70
2023-02-14T06:52:49.017Z,2.78
2023-02-14T06:55:15.399Z,2.95
2023-02-14T06:57:41.946Z,3.30
2023-02-14T07:00:10.001Z,3.30
2023-02-14T07:02:36.416Z,4.13
2023-02-14T07:05:02.822Z,3.17
2023-02-14T07:07:29.278Z,4.65
2023-02-14T07:09:55.698Z,4.68
2023-02-14T07:12:22.071Z,5.20
2023-02-14T07:14:48.369Z,4.80
2023-02-14T07:17:14.694Z,4.50
2023-02-14T07:19:41.150Z,4.75
2023-02-14T07:22:07.541Z,5.15
2023-02-14T07:24:33.951Z,5.53
2023-02-14T07:27:00.416Z,7.30
2023-02-14T07:29:26.855Z,6.00
2023-02-14T07:31:53.808Z,8.73
2023-02-14T07:34:20.217Z,8.32
2023-02-14T07:36:46.864Z,9.98
2023-02-14T07:39:13.377Z,11.35
2023-02-14T07:41:39.799Z,12.27
2023-02-14T07:44:06.178Z,13.20
2023-02-14T07:46:32.556Z,10.10
2023-02-14T07:48:58.932Z,10.85
2023-02-14T07:51:25.439Z,9.63
2023-02-14T07:53:51.739Z,13.25
2023-02-14T07:56:18.203Z,8.98
2023-02-14T07:58:44.629Z,9.10
2023-02-14T08:01:11.116Z,9.00
2023-02-14T08:03:37.541Z,11.65
2023-02-14T08:06:03.948Z,7.20
2023-02-14T08:08:31.045Z,10.52
2023-02-14T08:10:57.759Z,9.57
2023-02-14T08:13:24.395Z,9.50
2023-02-14T08:16:06.270Z,11.25
2023-02-14T08:18:34.842Z,14.15
2023-02-14T08:21:01.804Z,10.93
2023-02-14T08:23:28.684Z,14.18
2023-02-14T08:25:55.075Z,10.50
2023-02-14T08:28:24.018Z,12.90
2023-02-14T08:30:50.960Z,14.15
2023-02-14T08:33:17.446Z,13.48
2023-02-14T08:35:43.907Z,13.02
2023-02-14T08:38:10.594Z,14.57
2023-02-14T08:40:37.390Z,12.75
2023-02-14T08:43:07.548Z,14.60
2023-02-14T08:45:34.052Z,23.55
2023-02-14T08:48:01.294Z,12.48
2023-02-14T08:50:27.827Z,18.77
2023-02-14T08:52:54.269Z,26.33
2023-02-14T08:55:20.644Z,21.52
2023-02-14T08:57:49.288Z,23.35
2023-02-14T09:00:15.806Z,20.50
2023-02-14T09:02:42.227Z,22.88
2023-02-14T09:05:10.535Z,27.40
2023-02-14T09:07:36.908Z,19.13
2023-02-14T09:10:03.422Z,25.58
2023-02-14T09:12:29.804Z,16.77
2023-02-14T09:14:56.217Z,35.50
2023-02-14T09:17:22.651Z,29.00
2023-02-14T09:19:49.162Z,20.05
2023-02-14T09:22:15.528Z,26.90
2023-02-14T09:24:41.910Z,25.98
2023-02-14T09:27:08.578Z,34.78
2023-02-14T09:29:35.257Z,37.80
2023-02-14T09:32:02.044Z,28.65
2023-02-14T09:34:28.945Z,31.90
2023-02-14T09:36:55.325Z,27.50
2023-02-14T09:39:21.818Z,28.85
2023-02-14T09:41:48.155Z,24.85
2023-02-14T09:44:20.624Z,36.15
2023-02-14T09:46:50.417Z,37.25
2023-02-14T09:49:19.256Z,37.97
2023-02-14T09:51:48.276Z,36.28
2023-02-14T09:54:17.890Z,37.20
2023-02-14T09:56:57.439Z,39.22
2023-02-14T09:59:39.936Z,34.75
2023-02-14T10:02:21.452Z,33.20
2023-02-14T10:04:57.745Z,37.15
2023-02-14T10:07:33.646Z,38.33
2023-02-14T10:09:59.949Z,36.28
2023-02-14T10:12:26.263Z,27.50
2023-02-14T10:14:55.404Z,40.85
2023-02-14T10:17:42.024Z,34.92
2023-02-14T10:20:37.662Z,37.08
2023-02-14T10:23:17.390Z,25.33
2023-02-14T10:25:49.896Z,29.85
2023-02-14T10:28:17.756Z,27.27
2023-02-14T10:30:49.654Z,19.40
2023-02-14T10:33:17.692Z,35.10
2023-02-14T10:35:50.978Z,36.38
2023-02-14T10:38:35.886Z,31.80
2023-02-14T10:41:02.373Z,35.05
2023-02-14T10:43:28.684Z,42.75
2023-02-14T10:45:57.903Z,34.65
2023-02-14T10:48:36.619Z,38.33
2023-02-14T10:51:03.064Z,36.13
2023-02-14T10:53:36.393Z,33.60
2023-02-14T10:56:05.764Z,34.42
2023-02-14T10:58:34.200Z,30.90
2023-02-14T11:01:14.121Z,25.67
2023-02-14T11:03:44.030Z,26.10
2023-02-14T11:06:10.755Z,34.20
2023-02-14T11:08:38.715Z,21.65
2023-02-14T11:11:05.201Z,41.25
2023-02-14T11:13:33.762Z,16.95
2023-02-14T11:16:01.800Z,35.00
2023-02-14T11:18:39.508Z,33.70
2023-02-14T11:21:13.633Z,37.70
2023-02-14T11:23:42.177Z,31.75
2023-02-14T11:26:10.471Z,36.35
2023-02-14T11:28:37.901Z,36.47
2023-02-14T11:31:05.399Z,44.50
2023-02-14T11:33:34.986Z,40.45
2023-02-14T11:36:03.093Z,18.67
2023-02-14T11:38:32.014Z,38.80
2023-02-14T11:40:59.993Z,39.83
2023-02-14T11:43:31.410Z,27.95
2023-02-14T11:46:08.843Z,27.85
2023-02-14T11:48:38.884Z,30.83
2023-02-14T11:51:10.801Z,37.33
2023-02-14T11:53:51.986Z,29.70
2023-02-14T11:56:19.088Z,31.45
2023-02-14T11:58:45.409Z,38.40
2023-02-14T12:01:14.044Z,33.95
2023-02-14T12:03:44.932Z,37.58
2023-02-14T12:06:12.038Z,37.65
2023-02-14T12:08:41.871Z,36.58
2023-02-14T12:11:21.400Z,29.55
2023-02-14T12:13:54.767Z,20.50
2023-02-14T12:16:24.152Z,18.98
2023-02-14T12:18:56.403Z,39.20
2023-02-14T12:21:44.160Z,32.75
2023-02-14T12:24:16.782Z,42.45
2023-02-14T12:26:49.784Z,44.63
2023-02-14T12:29:26.153Z,21.48
2023-02-14T12:31:53.499Z,34.42
2023-02-14T12:34:20.432Z,23.65
2023-02-14T12:36:49.850Z,37.67
2023-02-14T12:39:35.437Z,35.10
2023-02-14T12:42:20.274Z,51.38
2023-02-14T12:44:57.687Z,38.22
2023-02-14T12:47:43.226Z,39.05
2023-02-14T12:50:14.263Z,29.52
2023-02-14T12:52:47.099Z,31.15
2023-02-14T12:55:22.295Z,38.92
2023-02-14T12:57:57.883Z,32.47
2023-02-14T13:00:24.256Z,43.55
2023-02-14T13:03:03.840Z,37.13
2023-02-14T13:05:43.781Z,38.53
2023-02-14T13:08:16.090Z,25.60
2023-02-14T13:10:52.253Z,26.45
2023-02-14T13:13:37.424Z,34.47
2023-02-14T13:16:17.053Z,37.55
2023-02-14T13:18:47.444Z,41.00
2023-02-14T13:21:15.094Z,34.05
2023-02-14T13:23:43.677Z,37.72
2023-02-14T13:26:10.170Z,27.75
2023-02-14T13:28:37.456Z,43.35
2023-02-14T13:31:04.873Z,37.55
2023-02-14T13:33:37.948Z,40.08
2023-02-14T13:36:07.702Z,27.05
2023-02-14T13:38:37.204Z,41.15
2023-02-14T13:41:05.403Z,40.72
2023-02-14T13:43:51.050Z,34.00
2023-02-14T13:46:22.484Z,39.30
2023-02-14T13:48:58.261Z,33.33
2023-02-14T13:51:43.320Z,39.83
2023-02-14T13:54:21.605Z,32.80
2023-02-14T13:56:48.224Z,37.15
2023-02-14T13:59:46.751Z,39.80
2023-02-14T14:02:42.581Z,39.85
2023-02-14T14:05:29.196Z,40.93
2023-02-14T14:08:14.082Z,38.42
2023-02-14T14:10:42.993Z,33.03
2023-02-14T14:13:09.374Z,46.33
2023-02-14T14:15:35.712Z,38.75
2023-02-14T14:18:13.974Z,40.15
2023-02-14T14:20:43.856Z,42.80
2023-02-14T14:23:28.908Z,42.58
2023-02-14T14:25:55.470Z,23.52
2023-02-14T14:28:25.990Z,27.77
2023-02-14T14:30:52.530Z,45.53
2023-02-14T14:33:24.856Z,32.33
2023-02-14T14:35:55.737Z,36.25
2023-02-14T14:38:22.451Z,35.75
2023-02-14T14:40:49.718Z,39.40
2023-02-14T14:43:25.552Z,40.45
2023-02-14T14:48:27.685Z,39.13
2023-02-14T14:50:54.069Z,39.17
2023-02-14T14:53:26.693Z,37.50
2023-02-14T14:55:54.785Z,39.15
2023-02-14T14:58:47.598Z,38.17
2023-02-14T15:01:27.559Z,39.28
2023-02-14T15:03:54.817Z,41.35
2023-02-14T15:06:21.537Z,38.22
2023-02-14T15:08:48.713Z,15.25
2023-02-14T15:11:44.788Z,45.13
2023-02-14T15:14:15.300Z,41.85
2023-02-14T15:16:51.889Z,44.75
2023-02-14T15:19:18.206Z,40.75
2023-02-14T15:21:45.449Z,45.35
2023-02-14T15:24:14.642Z,43.40
2023-02-14T15:26:43.047Z,40.35
2023-02-14T15:29:20.800Z,43.08
2023-02-14T15:31:47.438Z,42.38
2023-02-14T15:34:14.108Z,39.72
2023-02-14T15:36:41.558Z,34.58
2023-02-14T15:39:09.499Z,43.90
2023-02-14T15:41:36.124Z,48.58
2023-02-14T15:44:02.421Z,43.17
2023-02-14T15:46:36.824Z,42.70
2023-02-14T15:49:06.935Z,44.20
2023-02-14T15:51:36.255Z,46.92
2023-02-14T15:54:04.050Z,40.22
2023-02-14T15:56:31.719Z,49.25
2023-02-14T15:59:05.288Z,47.35
2023-02-14T16:01:32.447Z,42.70
2023-02-14T16:04:00.324Z,39.65
2023-02-14T16:06:32.864Z,44.85
2023-02-14T16:08:59.321Z,43.30
2023-02-14T16:11:30.818Z,38.85
2023-02-14T16:13:57.481Z,46.35
2023-02-14T16:16:23.870Z,41.80
2023-02-14T16:18:56.523Z,39.38
2023-02-14T16:21:25.859Z,42.13
2023-02-14T16:24:07.266Z,43.15
2023-02-14T16:26:34.597Z,43.38
2023-02-14T16:29:04.677Z,43.47
2023-02-14T16:31:31.843Z,49.55
2023-02-14T16:33:58.339Z,44.10
2023-02-14T16:36:26.847Z,45.80
2023-02-14T16:38:53.811Z,44.90
2023-02-14T16:41:24.714Z,47.20
2023-02-14T16:43:51.108Z,51.67
2023-02-14T16:46:21.912Z,45.67
2023-02-14T16:48:52.355Z,42.50
2023-02-14T16:51:20.253Z,42.55
2023-02-14T16:53:46.821Z,43.42
2023-02-14T16:56:16.896Z,44.83
2023-02-14T16:58:43.513Z,47.50
2023-02-14T17:01:09.981Z,48.63
2023-02-14T17:03:36.454Z,46.72
2023-02-14T17:06:02.961Z,42.60
2023-02-14T17:08:29.736Z,42.30
2023-02-14T17:10:57.256Z,44.55
2023-02-14T17:13:25.057Z,56.05
2023-02-14T17:15:51.800Z,54.30
2023-02-14T17:18:20.426Z,46.35
2023-02-14T17:20:47.234Z,47.90
2023-02-14T17:23:13.603Z,48.47
2023-02-14T17:25:39.997Z,49.88
2023-02-14T17:28:06.383Z,47.58
2023-02-14T17:30:32.835Z,48.85
2023-02-14T17:32:59.283Z,51.40
2023-02-14T17:35:26.128Z,56.17
2023-02-14T17:37:52.576Z,53.08
2023-02-14T17:40:19.000Z,56.75
2023-02-14T17:42:45.951Z,50.63
2023-02-14T17:45:12.320Z,48.40
2023-02-14T17:47:40.477Z,53.38
2023-02-14T17:50:07.242Z,49.10
2023-02-14T17:52:34.438Z,49.20
2023-02-14T17:55:00.762Z,44.08
2023-02-14T17:57:27.416Z,48.58
2023-02-14T17:59:53.855Z,46.72
2023-02-14T18:02:20.346Z,45.30
2023-02-14T18:04:48.375Z,42.20
2023-02-14T18:07:14.893Z,44.13
2023-02-14T18:09:41.539Z,50.58
2023-02-14T18:12:10.290Z,49.03
2023-02-14T18:14:38.694Z,43.00
2023-02-14T18:17:05.832Z,47.45
2023-02-14T18:19:32.480Z,48.03
2023-02-14T18:21:58.956Z,48.13
2023-02-14T18:24:25.433Z,52.05
2023-02-14T18:26:51.784Z,51.58
2023-02-14T18:29:18.257Z,47.80
2023-02-14T18:31:44.872Z,50.53
2023-02-14T18:34:11.280Z,49.72
2023-02-14T18:36:38.925Z,48.22
2023-02-14T18:39:06.017Z,46.88
2023-02-14T18:41:32.443Z,49.25
2023-02-14T18:43:58.922Z,47.22
2023-02-14T18:46:27.112Z,50.17
2023-02-14T18:48:53.829Z,46.70
2023-02-14T18:51:21.880Z,47.63
2023-02-14T18:53:52.150Z,50.45
2023-02-14T18:56:19.707Z,45.53
2023-02-14T18:58:48.053Z,51.78
2023-02-14T19:01:15.649Z,48.72
2023-02-14T19:03:42.479Z,49.83
2023-02-14T19:06:10.155Z,49.03
2023-02-14T19:08:38.213Z,49.78
2023-02-14T19:11:09.241Z,54.20
2023-02-14T19:13:35.753Z,50.97
2023-02-14T19:16:08.935Z,53.28
2023-02-14T19:18:35.313Z,54.58
2023-02-14T19:21:12.157Z,53.28
2023-02-14T19:23:38.466Z,52.50
2023-02-14T19:26:15.919Z,50.63
2023-02-14T19:28:42.712Z,50.45
2023-02-14T19:31:09.299Z,49.78
2023-02-14T19:33:43.079Z,51.63
2023-02-14T19:36:12.753Z,48.38
2023-02-14T19:38:43.166Z,47.88
2023-02-14T19:41:30.176Z,52.58
2023-02-14T19:43:57.802Z,47.33
2023-02-14T19:46:24.758Z,52.78
2023-02-14T19:48:51.434Z,47.67
2023-02-14T19:51:20.428Z,54.10
2023-02-14T19:53:46.852Z,12.65
2023-02-14T19:56:13.475Z,14.27
2023-02-14T19:58:40.985Z,49.05
2023-02-14T20:01:07.356Z,49.22
2023-02-14T20:03:35.562Z,42.60
2023-02-14T20:06:02.061Z,43.15
2023-02-14T20:08:28.425Z,31.13
2023-02-14T20:10:54.739Z,24.60
2023-02-14T20:13:21.080Z,37.92
2023-02-14T20:15:47.568Z,28.45
2023-02-14T20:18:14.013Z,39.20
2023-02-14T20:21:03.288Z,44.78
2023-02-14T20:23:31.386Z,42.33
2023-02-14T20:25:57.774Z,44.38
2023-02-14T20:28:24.117Z,37.83
2023-02-14T20:30:50.673Z,39.53
2023-02-14T20:33:17.040Z,41.40
2023-02-14T20:35:43.427Z,36.60
2023-02-14T20:38:09.853Z,40.70
2023-02-14T20:40:39.691Z,37.22
2023-02-14T20:43:06.132Z,38.20
2023-02-14T20:45:33.004Z,35.60
2023-02-14T20:48:03.323Z,33.92
2023-02-14T20:50:30.407Z,18.13
2023-02-14T20:52:56.758Z,22.60
2023-02-14T20:55:23.078Z,33.17
2023-02-14T20:57:49.495Z,35.47
2023-02-14T21:00:15.915Z,28.80
2023-02-14T21:02:42.288Z,35.08
2023-02-14T21:05:08.635Z,33.67
2023-02-14T21:07:35.092Z,24.35
2023-02-14T21:10:01.508Z,37.10
2023-02-14T21:12:27.959Z,39.53
2023-02-14T21:14:54.350Z,40.00
2023-02-14T21:17:20.683Z,36.10
2023-02-14T21:19:47.270Z,41.70
2023-02-14T21:22:13.698Z,46.42
2023-02-14T21:24:40.273Z,43.25
2023-02-14T21:27:06.590Z,38.90
2023-02-14T21:29:32.915Z,44.53
2023-02-14T21:32:01.724Z,39.65
2023-02-14T21:34:29.299Z,38.13
2023-02-14T21:36:56.297Z,39.22
2023-02-14T21:39:27.410Z,38.88
2023-02-14T21:41:54.290Z,37.00
2023-02-14T21:44:40.957Z,38.88
2023-02-14T21:47:07.400Z,39.03
2023-02-14T21:49:52.349Z,41.83
2023-02-14T21:52:18.761Z,45.13
2023-02-14T21:54:45.097Z,41.40
2023-02-14T21:57:11.439Z,41.65
2023-02-14T21:59:40.172Z,43.88
2023-02-14T22:02:06.712Z,36.92
2023-02-14T22:04:33.979Z,45.83
2023-02-14T22:07:00.580Z,41.88
2023-02-14T22:09:27.021Z,44.33
2023-02-14T22:11:53.422Z,43.05
2023-02-14T22:14:19.861Z,39.28
2023-02-14T22:16:46.181Z,42.20
2023-02-14T22:19:15.054Z,42.30
2023-02-14T22:21:42.240Z,39.60
2023-02-14T22:24:08.815Z,43.97
2023-02-14T22:26:38.817Z,40.63
2023-02-14T22:29:05.654Z,44.63
2023-02-14T22:31:33.938Z,45.30
2023-02-14T22:34:00.448Z,42.33
2023-02-14T22:36:26.811Z,44.03
2023-02-14T22:38:53.270Z,40.38
2023-02-14T22:41:20.710Z,39.88
2023-02-14T22:43:47.492Z,47.15
2023-02-14T22:46:13.972Z,19.38
2023-02-14T22:48:40.800Z,28.83
2023-02-14T22:51:11.054Z,48.60
2023-02-14T22:53:38.209Z,46.95
2023-02-14T22:56:15.260Z,41.92
2023-02-14T22:58:41.978Z,44.50
2023-02-14T23:01:13.047Z,37.92
2023-02-14T23:03:39.390Z,40.88
2023-02-14T23:06:05.785Z,35.75
2023-02-14T23:08:32.128Z,30.98
2023-02-14T23:11:05.444Z,23.83
2023-02-14T23:13:50.334Z,29.77
2023-02-14T23:16:35.468Z,27.30
2023-02-14T23:19:20.161Z,24.23
2023-02-14T23:21:55.573Z,26.40
2023-02-14T23:24:22.391Z,24.23
2023-02-14T23:26:49.115Z,23.77
2023-02-14T23:29:15.527Z,21.52
2023-02-14T23:31:42.116Z,24.35
2023-02-14T23:34:08.552Z,20.05
2023-02-14T23:36:34.991Z,20.92
2023-02-14T23:39:01.442Z,22.25
2023-02-14T23:41:46.649Z,19.50
2023-02-14T23:44:24.073Z,14.38
2023-02-14T23:46:51.942Z,15.27
2023-02-14T23:49:18.580Z,19.23
2023-02-14T23:51:45.515Z,17.25
2023-02-14T23:54:12.362Z,19.50
2023-02-14T23:56:39.331Z,19.45
2023-02-14T23:59:06.049Z,19.83
